Time;durP1;ratioP1;P1;durP2;ratioP2;P2;SDS_P1;SDS_P2;PMS_P1;PMS_P2;Temp;Humidity;BMP_temperature;BMP_pressure;BME280_temperature;BME280_humidity;BME280_pressure;Samples;Min_cycle;Max_cycle;Signal;HPM_P1;HPM_P2
2021/06/22 00:02:15;;;;;;;22.15;5.15;;;23.80;79.60;;;;;;5096312;28;20041;-81
2021/06/22 00:04:41;;;;;;;18.80;5.50;;;23.80;79.50;;;;;;5095623;28;20024;-82
2021/06/22 00:07:07;;;;;;;28.98;5.60;;;23.70;79.30;;;;;;5098012;28;20035;-82
2021/06/22 00:09:33;;;;;;;27.27;5.38;;;23.70;79.30;;;;;;5097404;28;20054;-82
2021/06/22 00:11:59;;;;;;;25.50;5.75;;;23.60;78.90;;;;;;5096736;28;20043;-82
2021/06/22 00:14:24;;;;;;;18.10;5.00;;;23.60;78.80;;;;;;5096251;28;20467;-82
2021/06/22 00:16:50;;;;;;;24.85;5.38;;;23.60;78.60;;;;;;5096171;28;20035;-82
2021/06/22 00:19:16;;;;;;;20.10;5.45;;;23.60;78.50;;;;;;5096590;28;20028;-82
2021/06/22 00:21:42;;;;;;;29.83;5.68;;;23.50;78.30;;;;;;5111703;28;20027;-83
2021/06/22 00:24:08;;;;;;;24.90;5.43;;;23.50;78.10;;;;;;5111496;28;20469;-81
2021/06/22 00:26:34;;;;;;;24.80;5.47;;;23.50;78.00;;;;;;5109128;28;20063;-80
2021/06/22 00:29:00;;;;;;;20.48;4.82;;;23.50;78.00;;;;;;5110136;28;20020;-81
2021/06/22 00:31:25;;;;;;;21.88;5.20;;;23.40;78.00;;;;;;5083036;28;20476;-81
2021/06/22 00:33:51;;;;;;;25.95;6.03;;;23.40;77.90;;;;;;5096182;28;20111;-81
2021/06/22 00:36:17;;;;;;;18.17;6.22;;;23.40;77.90;;;;;;5095951;28;20027;-82
2021/06/22 00:38:43;;;;;;;21.20;5.50;;;23.40;77.80;;;;;;5077617;28;20027;-81
2021/06/22 00:41:09;;;;;;;33.15;5.13;;;23.40;77.70;;;;;;5095223;28;20363;-81
2021/06/22 00:43:38;;;;;;;21.27;5.32;;;23.40;77.60;;;;;;5095356;28;20098;-82
2021/06/22 00:46:04;;;;;;;20.63;5.68;;;23.50;77.60;;;;;;5094464;28;20024;-82
2021/06/22 00:48:30;;;;;;;25.80;4.97;;;23.40;77.40;;;;;;5110211;28;20024;-81
2021/06/22 00:50:56;;;;;;;18.63;5.75;;;23.40;77.20;;;;;;5094414;28;20035;-81
2021/06/22 00:53:22;;;;;;;22.10;4.88;;;23.40;77.10;;;;;;5093923;28;20040;-82
2021/06/22 00:55:47;;;;;;;23.73;5.22;;;23.40;77.00;;;;;;5094241;28;20024;-82
2021/06/22 00:58:13;;;;;;;15.55;5.22;;;23.40;76.80;;;;;;5076509;28;20024;-82
2021/06/22 01:00:39;;;;;;;23.92;5.07;;;23.40;76.80;;;;;;5094368;28;20425;-82
2021/06/22 01:03:05;;;;;;;17.63;4.47;;;23.40;76.60;;;;;;5094319;28;20022;-82
2021/06/22 01:05:32;;;;;;;19.35;4.93;;;23.40;76.40;;;;;;5094431;28;20048;-82
2021/06/22 01:07:59;;;;;;;27.95;5.80;;;23.40;76.10;;;;;;5094096;28;20020;-82
2021/06/22 01:10:26;;;;;;;18.42;4.78;;;23.40;75.80;;;;;;5094149;28;20024;-82
2021/06/22 01:12:53;;;;;;;25.70;5.50;;;23.40;75.60;;;;;;5094027;28;20427;-82
2021/06/22 01:15:24;;;;;;;25.67;4.63;;;23.30;75.40;;;;;;5094255;28;20039;-82
2021/06/22 01:17:58;;;;;;;21.48;4.32;;;23.30;75.40;;;;;;5075990;28;20505;-82
2021/06/22 01:20:29;;;;;;;19.17;4.75;;;23.30;75.60;;;;;;5093752;28;20111;-82
2021/06/22 01:22:56;;;;;;;17.92;4.88;;;23.30;75.60;;;;;;5094149;28;20047;-82
2021/06/22 01:25:21;;;;;;;17.88;4.55;;;23.20;75.50;;;;;;5093981;28;20024;-82
2021/06/22 01:27:47;;;;;;;17.20;4.88;;;23.20;75.70;;;;;;5094447;28;20085;-83
2021/06/22 01:30:14;;;;;;;25.25;5.07;;;23.20;75.70;;;;;;5104332;28;20039;-82
2021/06/22 01:32:41;;;;;;;16.40;4.95;;;23.20;75.70;;;;;;5108411;28;20028;-83
2021/06/22 01:35:08;;;;;;;16.40;4.60;;;23.10;75.70;;;;;;5098944;28;20028;-83
2021/06/22 01:37:34;;;;;;;19.90;4.65;;;23.10;75.90;;;;;;5094586;28;20379;-83
2021/06/22 01:40:05;;;;;;;19.35;4.50;;;23.10;76.00;;;;;;5093613;28;20032;-83
2021/06/22 01:42:31;;;;;;;16.73;4.80;;;23.10;76.00;;;;;;5093808;28;20024;-83
2021/06/22 01:44:57;;;;;;;17.33;4.72;;;23.10;75.70;;;;;;5094091;28;20027;-81
2021/06/22 01:47:23;;;;;;;22.98;5.28;;;23.10;75.30;;;;;;5075567;28;20028;-80
2021/06/22 01:49:59;;;;;;;20.45;4.50;;;23.10;75.00;;;;;;5093739;28;20028;-80
2021/06/22 01:52:25;;;;;;;16.45;4.65;;;23.10;74.70;;;;;;5093282;28;20533;-79
2021/06/22 01:54:54;;;;;;;19.23;6.03;;;23.10;74.30;;;;;;5093302;28;20024;-79
2021/06/22 01:57:22;;;;;;;18.13;4.30;;;23.20;73.90;;;;;;5093154;28;20028;-80
2021/06/22 01:59:48;;;;;;;12.57;4.93;;;23.20;73.60;;;;;;5093230;28;20028;-79
2021/06/22 02:02:14;;;;;;;11.73;4.20;;;23.20;73.30;;;;;;5093447;28;20104;-80
2021/06/22 02:04:39;;;;;;;20.48;4.53;;;23.20;73.10;;;;;;5093290;28;20024;-80
2021/06/22 02:07:05;;;;;;;12.77;4.63;;;23.20;72.90;;;;;;5092910;28;20385;-80
2021/06/22 02:09:31;;;;;;;16.25;4.47;;;23.20;72.90;;;;;;5093270;28;20027;-80
2021/06/22 02:11:57;;;;;;;23.90;4.68;;;23.20;72.80;;;;;;5074943;28;20024;-80
2021/06/22 02:14:22;;;;;;;28.25;4.45;;;23.20;72.60;;;;;;5092713;28;20031;-80
2021/06/22 02:16:49;;;;;;;23.42;4.32;;;23.20;72.60;;;;;;5100786;28;20044;-79
2021/06/22 02:19:15;;;;;;;20.55;4.78;;;23.30;72.40;;;;;;5084603;28;20024;-79
2021/06/22 02:21:40;;;;;;;17.73;4.20;;;23.30;72.00;;;;;;5104609;28;20458;-80
2021/06/22 02:24:06;;;;;;;11.60;4.43;;;23.30;71.60;;;;;;5106191;28;20038;-83
2021/06/22 02:26:32;;;;;;;21.33;4.30;;;23.30;71.40;;;;;;5110097;28;20036;-83
2021/06/22 02:28:57;;;;;;;20.92;4.47;;;23.30;71.10;;;;;;5105906;28;20039;-83
2021/06/22 02:31:23;;;;;;;13.27;4.13;;;23.40;70.90;;;;;;5100855;28;20046;-84
2021/06/22 02:33:49;;;;;;;12.77;4.05;;;23.40;71.00;;;;;;5094322;28;20024;-83
2021/06/22 02:36:14;;;;;;;12.57;4.10;;;23.40;70.70;;;;;;5094335;28;20043;-84
2021/06/22 02:38:40;;;;;;;21.20;4.55;;;23.50;70.50;;;;;;5094075;28;20039;-84
2021/06/22 02:41:06;;;;;;;13.07;4.05;;;23.60;70.40;;;;;;5093911;28;20032;-84
2021/06/22 02:43:32;;;;;;;19.52;4.32;;;23.60;70.20;;;;;;5093740;28;20016;-81
2021/06/22 02:45:58;;;;;;;17.58;4.28;;;23.70;70.40;;;;;;5093133;28;20091;-81
2021/06/22 02:48:24;;;;;;;13.45;3.53;;;23.70;69.70;;;;;;5093203;28;20154;-81
2021/06/22 02:50:49;;;;;;;10.85;4.50;;;23.80;69.50;;;;;;5075051;28;20081;-80
2021/06/22 02:53:15;;;;;;;22.50;4.75;;;23.80;69.40;;;;;;5098835;28;20048;-80
2021/06/22 02:55:41;;;;;;;20.80;4.30;;;23.90;69.20;;;;;;5099631;28;20027;-80
2021/06/22 02:58:07;;;;;;;19.20;4.53;;;24.00;68.90;;;;;;5099992;28;20103;-80
2021/06/22 03:00:33;;;;;;;15.70;4.03;;;24.10;68.80;;;;;;5099164;28;20028;-79
2021/06/22 03:03:00;;;;;;;15.30;3.78;;;24.10;68.60;;;;;;5099124;28;20028;-79
2021/06/22 03:05:26;;;;;;;19.33;4.05;;;24.20;68.30;;;;;;5099000;28;20563;-79
2021/06/22 03:07:52;;;;;;;17.17;4.60;;;24.30;67.90;;;;;;5099111;28;20020;-79
2021/06/22 03:10:19;;;;;;;17.70;3.58;;;24.30;68.00;;;;;;5099544;28;20024;-79
2021/06/22 03:12:46;;;;;;;15.88;4.22;;;24.40;67.70;;;;;;5100438;28;20066;-81
2021/06/22 03:15:13;;;;;;;26.10;5.00;;;24.50;67.50;;;;;;5100875;28;20040;-82
2021/06/22 03:17:39;;;;;;;19.77;3.75;;;24.60;67.40;;;;;;5099509;28;20032;-79
2021/06/22 03:20:08;;;;;;;12.00;4.10;;;24.60;67.40;;;;;;5098705;28;20035;-78
2021/06/22 03:22:34;;;;;;;14.68;3.40;;;24.70;67.60;;;;;;5098815;28;20054;-78
2021/06/22 03:25:00;;;;;;;14.40;4.40;;;24.70;67.30;;;;;;5098565;28;20482;-78
2021/06/22 03:27:26;;;;;;;15.80;4.30;;;24.70;67.10;;;;;;5098427;28;20028;-78
2021/06/22 03:29:52;;;;;;;18.38;4.30;;;24.70;67.00;;;;;;5079992;28;20475;-78
2021/06/22 03:32:17;;;;;;;14.35;3.85;;;24.80;66.90;;;;;;5098636;28;20028;-78
2021/06/22 03:34:43;;;;;;;19.58;4.05;;;24.80;66.80;;;;;;5098410;28;20028;-78
2021/06/22 03:37:09;;;;;;;14.02;4.03;;;24.80;66.90;;;;;;5079813;28;20039;-78
2021/06/22 03:39:35;;;;;;;13.65;4.00;;;24.80;67.00;;;;;;5098145;28;20080;-78
2021/06/22 03:42:02;;;;;;;12.98;3.88;;;24.90;67.10;;;;;;5098181;28;20058;-78
2021/06/22 03:44:28;;;;;;;12.00;4.20;;;24.90;67.20;;;;;;5098296;28;20016;-79
2021/06/22 03:46:54;;;;;;;16.38;4.40;;;24.90;67.20;;;;;;5098034;28;20016;-78
2021/06/22 03:49:20;;;;;;;14.05;4.20;;;25.00;67.10;;;;;;5098271;28;20120;-78
2021/06/22 03:51:45;;;;;;;13.73;4.20;;;25.00;67.00;;;;;;5098047;28;20020;-79
2021/06/22 03:54:11;;;;;;;18.20;4.25;;;25.10;67.10;;;;;;5097938;28;20502;-78
2021/06/22 03:56:37;;;;;;;23.95;4.75;;;25.30;67.10;;;;;;5098197;28;20082;-78
2021/06/22 03:59:03;;;;;;;21.88;4.55;;;25.50;66.70;;;;;;5098012;28;20027;-78
2021/06/22 04:01:28;;;;;;;11.65;3.92;;;25.70;66.10;;;;;;5098096;28;20043;-79
2021/06/22 04:03:54;;;;;;;18.13;4.47;;;25.70;65.70;;;;;;5095372;28;20046;-78
2021/06/22 04:06:20;;;;;;;16.88;4.95;;;25.70;65.70;;;;;;5094633;28;20028;-79
2021/06/22 04:08:45;;;;;;;15.15;4.35;;;25.70;65.80;;;;;;5076652;28;20020;-79
2021/06/22 04:11:13;;;;;;;19.90;4.65;;;25.70;65.70;;;;;;5094392;28;20530;-79
2021/06/22 04:13:38;;;;;;;18.83;4.68;;;25.90;65.70;;;;;;5094581;28;20028;-79
2021/06/22 04:16:05;;;;;;;17.42;4.90;;;26.10;65.50;;;;;;5094381;28;20382;-80
2021/06/22 04:18:31;;;;;;;13.73;4.63;;;26.30;64.70;;;;;;5095069;28;20035;-80
2021/06/22 04:20:56;;;;;;;16.10;4.32;;;26.30;64.00;;;;;;5094746;28;20024;-80
2021/06/22 04:23:22;;;;;;;17.23;4.15;;;26.30;63.50;;;;;;5095256;28;20135;-80
2021/06/22 04:25:49;;;;;;;19.58;4.30;;;26.20;63.30;;;;;;5079893;28;20024;-80
2021/06/22 04:28:15;;;;;;;14.40;4.72;;;26.10;63.60;;;;;;5098353;28;20463;-81
2021/06/22 04:30:41;;;;;;;22.30;4.55;;;26.10;63.70;;;;;;5092709;28;20110;-81
2021/06/22 04:33:07;;;;;;;16.20;4.60;;;26.00;63.60;;;;;;5105199;28;20035;-82
2021/06/22 04:35:34;;;;;;;23.83;5.13;;;26.00;63.40;;;;;;5105895;28;20348;-80
2021/06/22 04:38:01;;;;;;;24.42;5.03;;;26.00;63.60;;;;;;5096886;28;20028;-80
2021/06/22 04:40:28;;;;;;;12.40;4.25;;;25.90;63.80;;;;;;5095387;28;20077;-81
2021/06/22 04:42:53;;;;;;;19.38;4.50;;;25.80;63.50;;;;;;5095412;28;20023;-81
2021/06/22 04:45:19;;;;;;;22.17;4.75;;;25.60;63.60;;;;;;5095284;28;20016;-82
2021/06/22 04:47:45;;;;;;;18.98;5.18;;;25.40;64.00;;;;;;5094535;28;20020;-82
2021/06/22 04:50:11;;;;;;;16.90;4.40;;;25.20;65.10;;;;;;5093911;28;20036;-81
2021/06/22 04:52:37;;;;;;;23.20;5.65;;;25.10;64.70;;;;;;5093981;28;20047;-81
2021/06/22 04:55:05;;;;;;;27.67;6.05;;;24.90;65.00;;;;;;5093707;28;20024;-81
2021/06/22 04:57:31;;;;;;;25.73;6.95;;;24.80;65.30;;;;;;5093820;28;20024;-82
2021/06/22 04:59:57;;;;;;;36.42;8.25;;;24.70;65.50;;;;;;5093919;28;20031;-81
2021/06/22 05:02:23;;;;;;;31.38;9.60;;;24.60;65.50;;;;;;5093859;28;20017;-81
2021/06/22 05:04:51;;;;;;;30.00;8.88;;;24.50;65.70;;;;;;5093695;28;20126;-81
2021/06/22 05:07:16;;;;;;;24.67;6.93;;;24.50;65.60;;;;;;5093554;28;20023;-81
2021/06/22 05:09:42;;;;;;;30.60;9.60;;;24.50;65.30;;;;;;5094560;28;20032;-81
2021/06/22 05:12:08;;;;;;;33.13;9.13;;;24.60;65.30;;;;;;5093925;28;20499;-81
2021/06/22 05:14:34;;;;;;;35.63;10.52;;;24.60;65.10;;;;;;5092215;28;20451;-81
2021/06/22 05:17:00;;;;;;;39.20;10.65;;;24.70;65.00;;;;;;5092586;28;20102;-81
2021/06/22 05:19:25;;;;;;;31.10;6.82;;;24.80;64.60;;;;;;5092815;28;20028;-80
2021/06/22 05:21:51;;;;;;;29.25;5.72;;;25.00;64.50;;;;;;5093901;28;20397;-82
2021/06/22 05:24:17;;;;;;;30.00;7.93;;;25.20;64.10;;;;;;5094209;28;20028;-79
2021/06/22 05:26:43;;;;;;;23.67;6.70;;;25.60;64.30;;;;;;5075367;28;20106;-78
2021/06/22 05:29:11;;;;;;;25.83;7.40;;;26.00;63.00;;;;;;5092653;28;20055;-79
2021/06/22 05:31:37;;;;;;;21.40;5.13;;;26.40;62.70;;;;;;5092927;28;20103;-80
2021/06/22 05:34:02;;;;;;;26.38;5.05;;;27.00;61.30;;;;;;5074744;28;20108;-80
2021/06/22 05:36:28;;;;;;;30.63;5.00;;;27.60;60.00;;;;;;5092422;28;20367;-80
2021/06/22 05:38:54;;;;;;;24.13;4.70;;;28.30;59.30;;;;;;5091828;28;20024;-79
2021/06/22 05:41:19;;;;;;;32.33;5.72;;;29.30;58.50;;;;;;5073258;28;20082;-80
2021/06/22 05:43:45;;;;;;;31.00;5.65;;;30.30;56.80;;;;;;5091876;28;20028;-81
2021/06/22 05:46:11;;;;;;;38.95;5.00;;;31.20;55.20;;;;;;5091411;28;20020;-78
2021/06/22 05:48:36;;;;;;;21.85;4.72;;;31.70;52.10;;;;;;5091269;28;20047;-79
2021/06/22 05:51:02;;;;;;;26.88;5.30;;;31.80;51.20;;;;;;5091142;28;20032;-79
2021/06/22 05:53:28;;;;;;;28.45;5.50;;;32.00;51.00;;;;;;5088327;28;20103;-78
2021/06/22 05:55:54;;;;;;;33.72;5.95;;;32.00;50.20;;;;;;5090746;28;20522;-79
2021/06/22 05:58:19;;;;;;;27.00;5.10;;;32.40;50.30;;;;;;5091175;28;20535;-79
2021/06/22 06:00:45;;;;;;;37.28;5.70;;;32.70;49.80;;;;;;5072528;28;20039;-80
2021/06/22 06:03:11;;;;;;;32.58;5.60;;;33.00;49.20;;;;;;5091223;28;20095;-80
2021/06/22 06:05:37;;;;;;;31.13;5.93;;;33.20;48.30;;;;;;5073576;28;20020;-80
2021/06/22 06:08:03;;;;;;;33.92;6.18;;;33.10;48.10;;;;;;5093073;28;20050;-78
2021/06/22 06:10:29;;;;;;;48.25;6.28;;;33.30;48.00;;;;;;5092507;28;20023;-80
2021/06/22 06:12:54;;;;;;;49.67;6.00;;;33.40;48.00;;;;;;5092669;28;20016;-78
2021/06/22 06:15:20;;;;;;;34.78;6.40;;;33.40;47.80;;;;;;5093110;28;20383;-77
2021/06/22 06:17:46;;;;;;;32.58;5.57;;;33.40;47.50;;;;;;5092934;28;20027;-79
2021/06/22 06:20:14;;;;;;;34.72;6.47;;;33.40;48.30;;;;;;5092683;28;20020;-79
2021/06/22 06:22:41;;;;;;;42.85;6.85;;;33.60;47.80;;;;;;5091629;28;20020;-79
2021/06/22 06:25:09;;;;;;;38.25;5.85;;;33.80;47.50;;;;;;5091811;28;20016;-79
2021/06/22 06:30:16;;;;;;;37.40;6.40;;;33.80;47.50;;;;;;5091106;28;20179;-79
2021/06/22 06:32:43;;;;;;;36.15;6.90;;;33.80;47.00;;;;;;5090914;28;20024;-81
2021/06/22 06:35:09;;;;;;;47.97;6.15;;;33.80;47.50;;;;;;5087758;28;20027;-81
2021/06/22 06:37:35;;;;;;;47.08;6.78;;;33.80;47.30;;;;;;5090361;28;20024;-78
2021/06/22 06:40:00;;;;;;;39.60;6.68;;;33.70;47.00;;;;;;5090183;28;20024;-79
2021/06/22 06:42:26;;;;;;;48.30;6.90;;;33.40;46.60;;;;;;5090067;28;20024;-79
2021/06/22 06:44:52;;;;;;;45.42;7.40;;;33.40;47.50;;;;;;5090088;28;20020;-78
2021/06/22 06:47:18;;;;;;;39.92;6.22;;;33.40;46.90;;;;;;5091051;28;20030;-78
2021/06/22 06:49:44;;;;;;;51.42;7.40;;;33.30;46.90;;;;;;5091287;28;20115;-78
2021/06/22 06:52:09;;;;;;;51.92;7.00;;;33.20;46.90;;;;;;5091205;28;20070;-78
2021/06/22 06:54:35;;;;;;;48.60;6.70;;;33.20;47.80;;;;;;5091616;28;20791;-79
2021/06/22 06:57:01;;;;;;;54.38;8.32;;;33.40;47.30;;;;;;5090900;28;20044;-78
2021/06/22 06:59:27;;;;;;;56.58;8.75;;;33.20;46.30;;;;;;5090974;28;20024;-78
2021/06/22 07:01:52;;;;;;;46.85;7.30;;;33.00;47.10;;;;;;5091479;28;20016;-76
2021/06/22 07:04:18;;;;;;;44.15;7.80;;;32.90;46.70;;;;;;5090992;28;20071;-78
2021/06/22 07:06:44;;;;;;;74.78;8.00;;;32.80;46.90;;;;;;5090819;28;20096;-79
2021/06/22 07:09:10;;;;;;;54.20;7.78;;;32.70;46.50;;;;;;5090922;28;20080;-78
2021/06/22 07:11:36;;;;;;;59.10;9.10;;;32.60;46.80;;;;;;5091160;28;20077;-78
2021/06/22 07:14:03;;;;;;;68.55;9.38;;;32.70;47.20;;;;;;5090686;28;20063;-79
2021/06/22 07:16:28;;;;;;;49.70;8.35;;;32.90;46.50;;;;;;5090990;28;20028;-78
2021/06/22 07:18:54;;;;;;;61.78;9.57;;;32.80;46.60;;;;;;5090951;28;20024;-78
2021/06/22 07:21:20;;;;;;;53.50;9.18;;;32.70;46.20;;;;;;5090932;28;20028;-76
2021/06/22 07:23:46;;;;;;;61.40;8.60;;;32.50;46.30;;;;;;5090886;28;20024;-78
2021/06/22 07:26:13;;;;;;;66.80;9.90;;;32.30;46.70;;;;;;5090739;28;20092;-77
2021/06/22 07:28:39;;;;;;;74.50;9.60;;;32.50;46.80;;;;;;5090753;28;20108;-78
2021/06/22 07:31:08;;;;;;;67.82;9.80;;;32.40;46.20;;;;;;5091192;28;20119;-77
2021/06/22 07:33:34;;;;;;;53.33;9.05;;;32.30;45.40;;;;;;5090970;28;20024;-79
2021/06/22 07:36:00;;;;;;;68.10;10.27;;;32.10;45.90;;;;;;5091102;28;20107;-80
2021/06/22 07:38:26;;;;;;;70.80;8.88;;;31.90;46.00;;;;;;5091164;28;20487;-81
2021/06/22 07:40:52;;;;;;;61.20;9.73;;;31.50;46.60;;;;;;5094768;28;20092;-80
2021/06/22 07:43:18;;;;;;;57.35;8.30;;;31.40;47.40;;;;;;5076406;28;20379;-81
2021/06/22 07:45:44;;;;;;;60.45;9.15;;;31.30;47.70;;;;;;5077322;28;20020;-83
2021/06/22 07:48:10;;;;;;;50.08;8.75;;;31.20;47.80;;;;;;5097134;28;20462;-84
2021/06/22 07:50:37;;;;;;;79.43;8.80;;;31.10;47.60;;;;;;5106670;28;20020;-83
2021/06/22 07:53:19;;;;;;;;;;;;;;;;;;;;;
2021/06/22 07:55:45;;;;;;;51.30;9.57;;;31.30;48.80;;;;;;5116908;28;20043;-86
2021/06/22 07:58:11;;;;;;;64.78;10.20;;;31.50;48.40;;;;;;5097504;28;20035;-87
2021/06/22 08:00:45;;;;;;;69.60;10.00;;;31.70;48.50;;;;;;5114742;28;20028;-86
2021/06/22 08:03:24;;;;;;;62.90;9.30;;;31.90;48.20;;;;;;5087001;28;20054;-87
2021/06/22 08:05:51;;;;;;;56.55;10.18;;;31.90;48.00;;;;;;5080022;28;20406;-86
2021/06/22 08:08:18;;;;;;;69.72;10.02;;;31.90;47.90;;;;;;5078201;28;20057;-86
2021/06/22 08:10:52;;;;;;;70.68;9.43;;;31.90;48.00;;;;;;5099137;28;20027;-86
2021/06/22 08:13:19;;;;;;;75.97;11.00;;;31.90;48.50;;;;;;5083410;28;20024;-85
2021/06/22 08:15:51;;;;;;;68.35;9.27;;;32.00;48.20;;;;;;5100967;28;20027;-86
2021/06/22 08:18:17;;;;;;;59.75;8.73;;;31.90;48.50;;;;;;5096904;28;20062;-86
2021/06/22 08:20:44;;;;;;;64.63;9.93;;;31.60;48.30;;;;;;5096360;28;20427;-84
2021/06/22 08:23:10;;;;;;;67.65;9.27;;;31.30;49.00;;;;;;5094699;28;20089;-80
2021/06/22 08:25:37;;;;;;;60.45;9.52;;;31.10;49.70;;;;;;5094525;28;20028;-80
2021/06/22 08:28:03;;;;;;;70.28;10.30;;;31.10;50.10;;;;;;5094244;28;20020;-78
2021/06/22 08:30:30;;;;;;;83.38;11.27;;;30.90;50.00;;;;;;5093789;28;20139;-78
2021/06/22 08:32:56;;;;;;;79.25;9.45;;;30.70;51.10;;;;;;5093904;28;20027;-80
2021/06/22 08:35:25;;;;;;;61.47;10.15;;;30.80;51.10;;;;;;5075363;28;20470;-80
2021/06/22 08:37:52;;;;;;;57.35;9.70;;;30.80;51.60;;;;;;5093818;28;20027;-80
2021/06/22 08:40:17;;;;;;;87.30;10.77;;;30.80;51.30;;;;;;5075776;28;20028;-80
2021/06/22 08:42:43;;;;;;;81.75;12.70;;;30.70;51.80;;;;;;5094064;28;20736;-79
2021/06/22 08:45:12;;;;;;;77.85;9.93;;;30.80;52.30;;;;;;5093679;28;20028;-79
2021/06/22 08:47:38;;;;;;;74.80;10.70;;;31.00;51.50;;;;;;5093636;28;20031;-82
2021/06/22 08:50:10;;;;;;;66.53;9.20;;;31.00;51.50;;;;;;5093733;28;20104;-87
2021/06/22 08:52:36;;;;;;;68.72;10.13;;;30.90;50.60;;;;;;5076038;28;20129;-84
2021/06/22 08:55:05;;;;;;;88.22;10.63;;;30.70;51.00;;;;;;5094499;28;20482;-82
2021/06/22 08:57:33;;;;;;;67.55;10.18;;;30.40;51.70;;;;;;5094306;28;20547;-85
2021/06/22 08:59:58;;;;;;;82.82;10.20;;;30.60;52.40;;;;;;5075944;28;20028;-84
2021/06/22 09:02:25;;;;;;;62.15;9.80;;;30.80;52.00;;;;;;5094584;28;20028;-83
2021/06/22 09:04:55;;;;;;;64.82;10.40;;;30.80;51.90;;;;;;5094394;28;20107;-84
2021/06/22 09:07:44;;;;;;;64.30;10.07;;;30.70;52.10;;;;;;5095450;28;20020;-84
2021/06/22 09:10:26;;;;;;;72.32;11.60;;;30.80;51.40;;;;;;5094875;28;20026;-83
2021/06/22 09:12:52;;;;;;;;;;;30.70;51.40;;;;;;5094350;28;20078;-83
2021/06/22 09:15:23;;;;;;;88.78;12.18;;;30.60;52.00;;;;;;5095225;28;20354;-83
2021/06/22 09:17:50;;;;;;;78.18;11.93;;;30.80;52.10;;;;;;5094995;28;20086;-83
2021/06/22 09:20:42;;;;;;;82.03;10.38;;;30.80;51.80;;;;;;5095290;28;20038;-83
2021/06/22 09:23:23;;;;;;;69.40;10.68;;;30.80;52.40;;;;;;5096507;28;20043;-83
2021/06/22 09:25:51;;;;;;;90.10;11.68;;;30.70;51.50;;;;;;5076785;28;20356;-83
2021/06/22 09:28:22;;;;;;;84.75;11.13;;;30.50;51.60;;;;;;5096461;28;20189;-84
2021/06/22 09:30:51;;;;;;;85.78;10.80;;;30.50;51.80;;;;;;5098455;28;20028;-84
2021/06/22 09:33:34;;;;;;;112.32;12.27;;;30.40;52.10;;;;;;5094906;28;20027;-84
2021/06/22 09:36:11;;;;;;;75.10;10.40;;;30.50;52.80;;;;;;5076577;28;20163;-84
2021/06/22 09:38:40;;;;;;;88.47;12.15;;;30.50;52.80;;;;;;5094910;28;20028;-83
2021/06/22 09:41:14;;;;;;;90.93;12.38;;;30.50;52.60;;;;;;5095358;28;20043;-84
2021/06/22 09:43:44;;;;;;;78.95;11.70;;;30.40;52.30;;;;;;5094755;28;20016;-84
2021/06/22 09:46:10;;;;;;;91.05;11.70;;;30.40;52.50;;;;;;5075491;28;20486;-83
2021/06/22 09:48:54;;;;;;;81.80;11.75;;;30.30;52.40;;;;;;5076033;28;20090;-84
2021/06/22 09:51:27;;;;;;;70.43;10.50;;;30.30;52.70;;;;;;5076248;28;20035;-85
2021/06/22 09:54:16;;;;;;;92.03;12.85;;;30.30;53.00;;;;;;5092279;28;20048;-80
2021/06/22 09:56:56;;;;;;;70.95;10.48;;;30.20;52.50;;;;;;5078962;28;20040;-79
2021/06/22 09:59:23;;;;;;;90.78;12.02;;;30.20;52.30;;;;;;5092618;28;20035;-80
2021/06/22 10:01:52;;;;;;;88.45;12.45;;;30.10;53.00;;;;;;5073791;28;20024;-80
2021/06/22 10:04:27;;;;;;;84.65;11.55;;;30.00;53.10;;;;;;5092768;28;20016;-81
2021/06/22 10:06:55;;;;;;;88.43;12.63;;;30.00;53.00;;;;;;5097783;28;20030;-79
2021/06/22 10:09:32;;;;;;;87.20;12.95;;;30.00;52.60;;;;;;5100478;28;20079;-80
2021/06/22 10:12:05;;;;;;;87.82;14.02;;;30.00;52.80;;;;;;5099702;28;20090;-80
2021/06/22 10:15:02;;;;;;;80.10;13.40;;;30.00;52.70;;;;;;5095851;28;20028;-80
2021/06/22 10:17:30;;;;;;;98.43;12.05;;;30.00;52.70;;;;;;5091006;28;20028;-79
2021/06/22 10:19:58;;;;;;;96.07;12.60;;;30.00;52.80;;;;;;5091827;28;20097;-79
2021/06/22 10:22:27;;;;;;;103.72;13.43;;;29.90;53.10;;;;;;5091775;28;20016;-80
2021/06/22 10:24:56;;;;;;;107.03;14.95;;;29.90;53.00;;;;;;5091999;28;20034;-80
2021/06/22 10:27:22;;;;;;;99.85;13.23;;;29.80;53.30;;;;;;5093761;28;20020;-83
2021/06/22 10:29:51;;;;;;;93.38;12.23;;;29.80;52.80;;;;;;5092142;28;20024;-81
2021/06/22 10:32:18;;;;;;;105.35;13.50;;;29.80;53.00;;;;;;5092442;28;20058;-82
2021/06/22 10:34:46;;;;;;;97.38;13.27;;;29.80;53.20;;;;;;5092429;28;20039;-82
2021/06/22 10:37:22;;;;;;;89.80;14.15;;;29.80;53.80;;;;;;5092475;28;20093;-81
2021/06/22 10:39:54;;;;;;;102.35;14.82;;;29.90;54.40;;;;;;5092291;28;20373;-81
2021/06/22 10:42:21;;;;;;;101.60;13.52;;;30.00;54.30;;;;;;5091965;28;20048;-82
2021/06/22 10:45:00;;;;;;;94.90;13.80;;;30.10;54.50;;;;;;5091614;28;20020;-82
2021/06/22 10:47:31;;;;;;;108.75;13.48;;;30.20;53.90;;;;;;5091988;28;20016;-82
2021/06/22 10:49:57;;;;;;;105.15;15.75;;;30.20;54.20;;;;;;5092021;28;20095;-81
2021/06/22 10:52:41;;;;;;;92.90;12.63;;;30.20;53.60;;;;;;5092175;28;20086;-81
2021/06/22 10:55:21;;;;;;;95.95;14.20;;;30.00;53.30;;;;;;5091530;28;20424;-81
2021/06/22 10:58:11;;;;;;;108.68;13.75;;;29.90;53.80;;;;;;5091656;28;20024;-81
2021/06/22 11:00:37;;;;;;;122.43;15.50;;;29.90;54.40;;;;;;5092334;28;20526;-81
2021/06/22 11:03:06;;;;;;;93.70;12.32;;;30.00;53.60;;;;;;5091766;28;20013;-82
2021/06/22 11:05:34;;;;;;;111.03;14.07;;;29.90;53.40;;;;;;5092700;28;20739;-82
2021/06/22 11:08:13;;;;;;;109.93;15.10;;;29.90;53.90;;;;;;5074666;28;20040;-82
2021/06/22 11:10:41;;;;;;;129.65;15.55;;;29.90;54.00;;;;;;5092847;28;20024;-82
2021/06/22 11:13:08;;;;;;;110.47;14.02;;;29.90;53.60;;;;;;5094213;28;20035;-81
2021/06/22 11:15:55;;;;;;;129.02;15.30;;;29.90;53.20;;;;;;5096298;28;20024;-81
2021/06/22 11:18:21;;;;;;;98.93;15.45;;;29.80;53.00;;;;;;5096411;28;20075;-83
2021/06/22 11:21:05;;;;;;;103.20;15.07;;;29.80;53.60;;;;;;5096637;28;20474;-82
2021/06/22 11:23:52;;;;;;;119.35;15.00;;;29.90;54.00;;;;;;5096580;28;20024;-83
2021/06/22 11:26:18;;;;;;;135.02;16.00;;;30.00;54.00;;;;;;5078293;28;20036;-82
2021/06/22 11:29:01;;;;;;;113.00;14.30;;;30.10;54.50;;;;;;5095859;28;20095;-82
2021/06/22 11:31:39;;;;;;;126.32;16.10;;;30.10;53.70;;;;;;5095879;28;20024;-82
2021/06/22 11:34:13;;;;;;;106.95;15.63;;;30.10;53.00;;;;;;5095941;28;20031;-82
2021/06/22 11:36:48;;;;;;;137.90;17.40;;;30.00;52.60;;;;;;5096483;28;20024;-81
2021/06/22 11:39:20;;;;;;;120.97;17.92;;;29.90;52.70;;;;;;5095864;28;20035;-82
2021/06/22 11:42:25;;;;;;;133.98;16.77;;;29.90;52.40;;;;;;5096169;28;20461;-83
2021/06/22 11:45:13;;;;;;;134.38;17.63;;;29.90;52.60;;;;;;5077084;28;20065;-82
2021/06/22 11:47:39;;;;;;;144.90;17.40;;;29.90;52.40;;;;;;5095813;28;20035;-82
2021/06/22 11:50:10;;;;;;;116.60;16.95;;;30.00;52.60;;;;;;5095971;28;20024;-83
2021/06/22 11:52:40;;;;;;;;;;;30.20;53.10;;;;;;5095982;28;20047;-82
2021/06/22 11:55:16;;;;;;;123.95;16.38;;;30.20;52.50;;;;;;5096016;28;19995;-83
2021/06/22 11:57:50;;;;;;;133.35;16.65;;;30.30;51.50;;;;;;5095757;28;20032;-81
2021/06/22 12:00:20;;;;;;;133.02;15.98;;;30.20;51.60;;;;;;5094990;28;20044;-82
2021/06/22 12:02:53;;;;;;;133.55;17.38;;;30.30;51.30;;;;;;5095337;28;20016;-83
2021/06/22 12:05:20;;;;;;;114.72;14.55;;;30.30;51.40;;;;;;5094885;28;20020;-82
2021/06/22 12:07:47;;;;;;;101.47;15.93;;;30.40;51.50;;;;;;5094900;28;20048;-84
2021/06/22 12:10:13;;;;;;;118.50;15.77;;;30.30;50.80;;;;;;5095095;28;20020;-83
2021/06/22 12:12:43;;;;;;;121.03;16.33;;;30.30;50.70;;;;;;5094727;28;20047;-83
2021/06/22 12:15:11;;;;;;;125.75;17.27;;;30.30;51.10;;;;;;5094887;28;20055;-84
2021/06/22 12:17:37;;;;;;;113.65;16.48;;;30.30;51.00;;;;;;5094980;28;20028;-82
2021/06/22 12:20:19;;;;;;;137.52;17.33;;;30.30;50.60;;;;;;5076711;28;20170;-83
2021/06/22 12:23:04;;;;;;;126.10;17.05;;;30.30;50.70;;;;;;5094760;28;20020;-82
2021/06/22 12:25:34;;;;;;;125.70;17.20;;;30.20;49.90;;;;;;5094270;28;20021;-82
2021/06/22 12:28:00;;;;;;;134.73;17.63;;;30.20;50.60;;;;;;5095108;28;20450;-83
2021/06/22 12:30:56;;;;;;;159.43;19.33;;;30.10;50.10;;;;;;5094950;28;20085;-81
2021/06/22 12:33:24;;;;;;;128.88;16.27;;;30.10;50.00;;;;;;5094958;28;20378;-82
2021/06/22 12:35:52;;;;;;;121.85;16.25;;;30.10;50.30;;;;;;5094840;28;20744;-82
2021/06/22 12:38:20;;;;;;;120.38;16.08;;;30.10;50.50;;;;;;5096808;28;20024;-82
2021/06/22 12:40:48;;;;;;;116.20;15.85;;;30.10;50.80;;;;;;5096825;28;20031;-83
2021/06/22 12:43:16;;;;;;;126.82;16.05;;;30.10;50.70;;;;;;5095151;28;20054;-82